createdAt,value
2022-09-03T00:01:41.697Z,81.51
2022-09-03T00:04:36.237Z,82.13
2022-09-03T00:07:29.855Z,83.37
2022-09-03T00:10:22.641Z,82.89
2022-09-03T00:13:10.070Z,84.63
2022-09-03T00:15:56.649Z,85.81
2022-09-03T00:18:49.379Z,84.83
2022-09-03T00:21:41.287Z,85.46
2022-09-03T00:24:29.516Z,87.01
2022-09-03T00:27:16.855Z,87.48
2022-09-03T00:30:04.513Z,86.33
2022-09-03T00:32:55.886Z,86.03
2022-09-03T00:35:47.653Z,85.23
2022-09-03T00:38:33.770Z,84.09
2022-09-03T00:41:31.500Z,83.75
2022-09-03T00:44:45.467Z,84.00
2022-09-03T00:47:37.187Z,84.71
2022-09-03T00:50:33.475Z,83.98
2022-09-03T00:53:26.017Z,84.06
2022-09-03T00:56:17.340Z,83.13
2022-09-03T00:59:09.073Z,82.77
2022-09-03T01:02:03.585Z,82.00
2022-09-03T01:04:57.502Z,82.28
2022-09-03T01:07:47.927Z,83.03
2022-09-03T01:10:43.750Z,81.31
2022-09-03T01:13:38.566Z,80.01
2022-09-03T01:16:30.173Z,80.44
2022-09-03T01:19:35.758Z,79.16
2022-09-03T01:22:41.761Z,79.52
2022-09-03T01:25:37.639Z,80.75
2022-09-03T01:28:35.066Z,80.47
2022-09-03T01:31:30.332Z,81.80
2022-09-03T01:34:22.328Z,82.51
2022-09-03T01:37:16.670Z,82.56
2022-09-03T01:40:07.579Z,81.62
2022-09-03T01:43:05.430Z,81.88
2022-09-03T01:46:00.351Z,83.80
2022-09-03T01:48:51.550Z,84.91
2022-09-03T01:51:35.591Z,83.70
2022-09-03T01:54:34.971Z,85.05
2022-09-03T01:57:47.724Z,85.46
2022-09-03T02:00:35.683Z,87.19
2022-09-03T02:03:21.338Z,88.32
2022-09-03T02:06:07.239Z,89.48
2022-09-03T02:08:51.073Z,89.42
2022-09-03T02:11:34.934Z,88.87
2022-09-03T02:14:19.154Z,88.63
2022-09-03T02:17:06.712Z,89.98
2022-09-03T02:19:52.161Z,90.41
2022-09-03T02:22:36.903Z,89.59
2022-09-03T02:25:21.068Z,91.52
2022-09-03T02:28:11.221Z,92.33
2022-09-03T02:31:01.987Z,91.27
2022-09-03T02:33:48.799Z,91.87
2022-09-03T02:36:37.498Z,90.40
2022-09-03T02:39:21.445Z,90.57
2022-09-03T02:42:05.664Z,91.74
2022-09-03T02:44:53.421Z,90.55
2022-09-03T02:47:39.840Z,88.54
2022-09-03T02:50:23.729Z,88.95
2022-09-03T02:53:09.028Z,88.38
2022-09-03T02:55:53.244Z,88.25
2022-09-03T02:58:37.128Z,87.19
2022-09-03T03:01:24.115Z,86.99
2022-09-03T03:04:08.226Z,87.64
2022-09-03T03:06:52.148Z,86.66
2022-09-03T03:09:37.428Z,86.99
2022-09-03T03:12:21.564Z,86.58
2022-09-03T03:15:06.067Z,86.77
2022-09-03T03:17:49.866Z,85.84
2022-09-03T03:20:33.743Z,87.25
2022-09-03T03:23:17.950Z,87.49
2022-09-03T03:26:04.391Z,87.57
2022-09-03T03:28:49.642Z,86.11
2022-09-03T03:31:34.269Z,86.34
2022-09-03T03:34:18.143Z,87.08
2022-09-03T03:37:02.077Z,86.42
2022-09-03T03:39:46.025Z,86.04
2022-09-03T03:42:34.420Z,85.83
2022-09-03T03:45:19.115Z,86.51
2022-09-03T03:48:03.146Z,86.79
2022-09-03T03:50:47.533Z,86.84
2022-09-03T03:53:31.544Z,86.97
2022-09-03T03:56:17.243Z,87.97
2022-09-03T03:59:02.648Z,87.93
2022-09-03T04:01:46.603Z,88.67
2022-09-03T04:04:30.498Z,88.06
2022-09-03T04:07:14.595Z,88.26
2022-09-03T04:09:58.358Z,87.28
2022-09-03T04:12:42.462Z,87.14
2022-09-03T04:15:27.826Z,87.52
2022-09-03T04:18:11.830Z,88.22
2022-09-03T04:21:00.191Z,87.72
2022-09-03T04:23:47.011Z,86.66
2022-09-03T04:26:32.776Z,87.10
2022-09-03T04:29:16.673Z,86.63
2022-09-03T04:32:19.296Z,88.42
2022-09-03T04:35:03.188Z,87.14
2022-09-03T04:37:47.280Z,87.50
2022-09-03T04:40:31.232Z,86.96
2022-09-03T04:43:15.124Z,86.79
2022-09-03T04:46:00.606Z,87.26
2022-09-03T04:48:48.962Z,85.47
2022-09-03T04:51:32.973Z,84.07
2022-09-03T04:54:17.006Z,85.13
2022-09-03T04:57:00.907Z,84.34
2022-09-03T04:59:44.911Z,84.55
2022-09-03T05:02:28.778Z,84.19
2022-09-03T05:05:14.144Z,83.90
2022-09-03T05:07:59.550Z,83.44
2022-09-03T05:10:43.408Z,83.92
2022-09-03T05:13:28.658Z,86.43
2022-09-03T05:16:13.593Z,85.23
2022-09-03T05:19:01.315Z,84.11
2022-09-03T05:21:46.988Z,83.71
2022-09-03T05:24:30.870Z,85.56
2022-09-03T05:27:17.012Z,85.84
2022-09-03T05:30:01.560Z,84.08
2022-09-03T05:32:47.369Z,81.58
2022-09-03T05:35:31.188Z,80.95
2022-09-03T05:38:18.150Z,81.19
2022-09-03T05:41:02.363Z,80.81
2022-09-03T05:43:46.277Z,80.00
2022-09-03T05:46:33.525Z,81.88
2022-09-03T05:49:17.526Z,80.88
2022-09-03T05:52:01.430Z,80.61
2022-09-03T05:54:48.089Z,81.03
2022-09-03T05:57:32.022Z,78.49
2022-09-03T06:00:16.349Z,77.60
2022-09-03T06:03:00.258Z,78.57
2022-09-03T06:05:51.549Z,79.72
2022-09-03T06:08:35.541Z,82.17
2022-09-03T06:11:21.395Z,82.53
2022-09-03T06:14:06.796Z,83.85
2022-09-03T06:16:52.926Z,85.87
2022-09-03T06:19:37.129Z,84.74
2022-09-03T06:22:20.985Z,82.90
2022-09-03T06:25:05.894Z,83.82
2022-09-03T06:27:51.215Z,86.14
2022-09-03T06:30:35.577Z,85.19
2022-09-03T06:33:19.547Z,84.49
2022-09-03T06:36:08.624Z,87.09
2022-09-03T06:38:54.512Z,87.42
2022-09-03T06:41:38.539Z,86.49
2022-09-03T06:44:23.831Z,85.11
2022-09-03T06:47:07.715Z,83.04
2022-09-03T06:49:51.946Z,83.86
2022-09-03T06:52:35.854Z,84.50
2022-09-03T06:55:19.756Z,81.50
2022-09-03T06:58:03.661Z,83.06
2022-09-03T07:00:49.809Z,79.11
2022-09-03T07:03:34.475Z,79.77
2022-09-03T07:06:20.565Z,78.57
2022-09-03T07:09:04.696Z,78.32
2022-09-03T07:11:49.424Z,78.44
2022-09-03T07:14:33.408Z,77.26
2022-09-03T07:17:18.599Z,80.99
2022-09-03T07:20:02.531Z,79.08
2022-09-03T07:22:47.429Z,77.94
2022-09-03T07:25:31.720Z,81.65
2022-09-03T07:28:17.028Z,81.25
2022-09-03T07:31:04.837Z,82.24
2022-09-03T07:33:50.195Z,80.00
2022-09-03T07:36:41.696Z,77.37
2022-09-03T07:39:25.830Z,78.45
2022-09-03T07:42:11.135Z,80.59
2022-09-03T07:44:55.696Z,80.20
2022-09-03T07:47:47.267Z,77.64
2022-09-03T07:50:37.821Z,79.19
2022-09-03T07:53:22.874Z,79.85
2022-09-03T07:56:08.934Z,82.83
2022-09-03T07:58:52.870Z,81.36
2022-09-03T08:01:38.349Z,83.34
2022-09-03T08:04:23.242Z,82.75
2022-09-03T08:07:08.575Z,82.62
2022-09-03T08:09:52.532Z,82.74
2022-09-03T08:12:36.358Z,83.63
2022-09-03T08:15:20.255Z,82.21
2022-09-03T08:18:05.913Z,80.71
2022-09-03T08:20:50.071Z,79.74
2022-09-03T08:23:37.989Z,79.06
2022-09-03T08:26:23.304Z,79.36
2022-09-03T08:29:07.769Z,76.71
2022-09-03T08:31:51.844Z,78.43
2022-09-03T08:34:35.888Z,80.09
2022-09-03T08:37:20.152Z,78.26
2022-09-03T08:40:06.363Z,79.34
2022-09-03T08:43:06.587Z,80.02
2022-09-03T08:45:50.881Z,80.26
2022-09-03T08:48:35.582Z,81.27
2022-09-03T08:51:24.424Z,78.14
2022-09-03T08:54:11.982Z,77.56
2022-09-03T08:57:01.704Z,75.67
2022-09-03T08:59:46.268Z,74.58
2022-09-03T09:02:43.523Z,75.47
2022-09-03T09:05:39.967Z,76.06
2022-09-03T09:08:34.606Z,75.99
2022-09-03T09:11:29.124Z,77.86
2022-09-03T09:14:20.945Z,76.67
2022-09-03T09:17:19.383Z,74.16
2022-09-03T09:20:11.314Z,75.18
2022-09-03T09:22:59.155Z,74.29
2022-09-03T09:25:50.269Z,73.93
2022-09-03T09:28:37.845Z,73.08
2022-09-03T09:31:23.271Z,72.59
2022-09-03T09:34:08.878Z,73.46
2022-09-03T09:36:55.549Z,74.22
2022-09-03T09:39:39.657Z,71.75
2022-09-03T09:42:24.357Z,74.15
2022-09-03T09:45:12.287Z,74.50
2022-09-03T09:47:58.175Z,74.76
2022-09-03T09:50:42.167Z,75.94
2022-09-03T09:53:30.275Z,75.50
2022-09-03T09:56:24.033Z,74.90
2022-09-03T09:59:10.007Z,74.56
2022-09-03T10:02:09.028Z,72.27
2022-09-03T10:04:55.093Z,74.71
2022-09-03T10:07:39.039Z,74.81
2022-09-03T10:10:23.322Z,74.58
2022-09-03T10:13:12.686Z,76.48
2022-09-03T10:16:04.077Z,75.66
2022-09-03T10:18:55.183Z,76.60
2022-09-03T10:21:48.555Z,76.07
2022-09-03T10:24:40.353Z,76.49
2022-09-03T10:27:24.291Z,75.88
2022-09-03T10:30:09.096Z,75.05
2022-09-03T10:33:02.718Z,75.03
2022-09-03T10:35:53.908Z,75.28
2022-09-03T10:38:41.372Z,73.92
2022-09-03T10:41:41.232Z,73.44
2022-09-03T10:45:01.816Z,73.41
2022-09-03T10:48:29.082Z,73.47
2022-09-03T10:51:20.536Z,73.09
2022-09-03T10:54:24.271Z,71.51
2022-09-03T10:57:19.287Z,72.37
2022-09-03T11:00:09.499Z,70.63
2022-09-03T11:03:13.826Z,70.80
2022-09-03T11:06:10.009Z,70.31
2022-09-03T11:09:05.834Z,69.05
2022-09-03T11:11:58.708Z,67.11
2022-09-03T11:14:46.852Z,66.80
2022-09-03T11:17:38.601Z,67.10
2022-09-03T11:20:24.485Z,65.75
2022-09-03T11:23:13.516Z,65.65
2022-09-03T11:26:03.603Z,67.41
2022-09-03T11:28:58.563Z,68.44
2022-09-03T11:31:55.104Z,68.52
2022-09-03T11:34:47.646Z,69.37
2022-09-03T11:37:32.191Z,68.45
2022-09-03T11:40:18.379Z,69.13
2022-09-03T11:43:14.058Z,69.86
2022-09-03T11:46:11.969Z,68.16
2022-09-03T11:48:57.869Z,68.02
2022-09-03T11:51:44.189Z,68.81
2022-09-03T11:54:29.405Z,67.09
2022-09-03T11:57:15.928Z,68.50
2022-09-03T12:00:11.927Z,67.75
2022-09-03T12:03:02.816Z,67.77
2022-09-03T12:05:59.393Z,69.24
2022-09-03T12:08:59.682Z,68.46
2022-09-03T12:11:55.812Z,66.37
2022-09-03T12:14:49.767Z,65.91
2022-09-03T12:17:39.619Z,67.68
2022-09-03T12:20:29.437Z,69.04
2022-09-03T12:23:15.122Z,68.83
2022-09-03T12:26:01.837Z,69.27
2022-09-03T12:28:49.088Z,67.24
2022-09-03T12:31:38.112Z,66.49
2022-09-03T12:34:25.927Z,66.29
2022-09-03T12:40:30.125Z,68.84
2022-09-03T12:46:21.166Z,69.06
2022-09-03T12:49:32.138Z,69.81
2022-09-03T12:52:22.410Z,70.93
2022-09-03T12:55:15.368Z,69.02
2022-09-03T12:58:05.065Z,67.84
2022-09-03T13:00:54.607Z,67.32
2022-09-03T13:03:49.533Z,67.81
2022-09-03T13:06:42.458Z,70.60
2022-09-03T13:09:30.633Z,70.39
2022-09-03T13:12:23.323Z,69.92
2022-09-03T13:15:10.844Z,67.62
2022-09-03T13:18:13.287Z,68.00
2022-09-03T13:21:12.406Z,71.61
2022-09-03T13:24:15.409Z,71.93
2022-09-03T13:27:10.695Z,71.24
2022-09-03T13:30:07.027Z,71.15
2022-09-03T13:33:01.097Z,72.13
2022-09-03T13:35:51.080Z,70.28
2022-09-03T13:38:40.446Z,69.76
2022-09-03T13:41:36.753Z,72.19
2022-09-03T13:44:33.163Z,71.26
2022-09-03T13:47:29.097Z,68.43
2022-09-03T13:50:24.363Z,67.27
2022-09-03T13:53:14.360Z,69.96
2022-09-03T13:56:06.630Z,71.29
2022-09-03T13:58:57.377Z,71.20
2022-09-03T14:01:57.244Z,70.10
2022-09-03T14:04:53.227Z,67.50
2022-09-03T14:07:53.182Z,71.29
2022-09-03T14:10:52.499Z,70.74
2022-09-03T14:13:50.090Z,70.98
2022-09-03T14:16:42.804Z,70.97
2022-09-03T14:19:38.475Z,70.96
2022-09-03T14:22:26.595Z,68.04
2022-09-03T14:25:16.002Z,68.79
2022-09-03T14:28:15.157Z,66.48
2022-09-03T14:31:11.212Z,67.64
2022-09-03T14:34:03.186Z,66.60
2022-09-03T14:36:58.694Z,69.09
2022-09-03T14:39:54.295Z,69.46
2022-09-03T14:43:05.035Z,69.85
2022-09-03T14:46:05.023Z,72.62
2022-09-03T14:49:16.574Z,71.45
2022-09-03T14:52:24.078Z,73.57
2022-09-03T14:55:40.120Z,72.38
2022-09-03T14:58:40.831Z,72.40
2022-09-03T15:01:37.596Z,73.85
2022-09-03T15:04:51.440Z,71.97
2022-09-03T15:07:43.925Z,72.47
2022-09-03T15:10:36.503Z,72.24
2022-09-03T15:13:23.719Z,71.61
2022-09-03T15:16:26.977Z,71.63
2022-09-03T15:19:28.239Z,73.97
2022-09-03T15:22:22.971Z,74.23
2022-09-03T15:25:21.588Z,73.05
2022-09-03T15:28:13.841Z,73.29
2022-09-03T15:31:02.966Z,72.18
2022-09-03T15:33:58.679Z,74.37
2022-09-03T15:36:46.473Z,74.81
2022-09-03T15:39:35.309Z,76.28
2022-09-03T15:42:27.823Z,77.87
2022-09-03T15:45:33.924Z,77.81
2022-09-03T15:48:28.245Z,77.23
2022-09-03T15:51:19.186Z,78.69
2022-09-03T15:54:13.004Z,78.02
2022-09-03T15:57:04.981Z,79.35
2022-09-03T15:59:55.910Z,77.54
2022-09-03T16:02:45.637Z,78.19
2022-09-03T16:05:40.456Z,79.48
2022-09-03T16:08:30.999Z,80.63
2022-09-03T16:11:19.248Z,80.10
2022-09-03T16:14:09.706Z,81.64
2022-09-03T16:17:04.037Z,80.94
2022-09-03T16:19:53.835Z,81.00
2022-09-03T16:22:46.196Z,79.42
2022-09-03T16:25:35.698Z,80.76
2022-09-03T16:28:26.114Z,81.40
2022-09-03T16:31:21.429Z,80.78
2022-09-03T16:34:18.730Z,79.92
2022-09-03T16:37:16.150Z,81.59
2022-09-03T16:40:11.077Z,82.18
2022-09-03T16:43:13.358Z,82.42
2022-09-03T16:46:21.884Z,82.10
2022-09-03T16:49:22.064Z,82.99
2022-09-03T16:52:15.015Z,81.55
2022-09-03T16:55:09.591Z,82.13
2022-09-03T16:58:11.662Z,82.85
2022-09-03T17:01:10.046Z,82.59
2022-09-03T17:04:22.404Z,81.25
2022-09-03T17:07:20.873Z,80.94
2022-09-03T17:10:11.654Z,80.36
2022-09-03T17:13:12.964Z,80.90
2022-09-03T17:16:04.713Z,80.94
2022-09-03T17:18:52.823Z,81.54
2022-09-03T17:21:49.197Z,82.14
2022-09-03T17:24:48.009Z,82.28
2022-09-03T17:27:50.137Z,84.44
2022-09-03T17:30:42.872Z,82.76
2022-09-03T17:33:56.864Z,80.16
2022-09-03T17:36:59.074Z,80.80
2022-09-03T17:40:19.864Z,81.51
2022-09-03T17:43:16.896Z,81.18
2022-09-03T17:46:12.319Z,80.41
2022-09-03T17:48:59.410Z,79.08
2022-09-03T17:51:50.971Z,78.24
2022-09-03T17:54:44.196Z,81.36
2022-09-03T17:57:32.959Z,79.11
2022-09-03T18:00:25.554Z,78.32
2022-09-03T18:03:18.276Z,77.00
2022-09-03T18:06:12.309Z,76.34
2022-09-03T18:09:03.934Z,76.44
2022-09-03T18:11:51.085Z,75.67
2022-09-03T18:14:40.561Z,77.63
2022-09-03T18:17:32.648Z,78.20
2022-09-03T18:20:34.355Z,78.96
2022-09-03T18:23:41.394Z,79.39
2022-09-03T18:26:50.957Z,78.55
2022-09-03T18:29:59.300Z,80.02
2022-09-03T18:33:01.668Z,77.49
2022-09-03T18:36:04.199Z,76.89
2022-09-03T18:39:05.950Z,76.78
2022-09-03T18:42:19.735Z,76.87
2022-09-03T18:45:47.794Z,77.70
2022-09-03T18:48:57.134Z,76.99
2022-09-03T18:52:11.682Z,76.47
2022-09-03T18:55:25.279Z,77.16
2022-09-03T18:58:38.419Z,78.86
2022-09-03T19:01:50.069Z,78.04
2022-09-03T19:05:08.255Z,78.73
2022-09-03T19:08:18.450Z,78.09
2022-09-03T19:11:26.180Z,77.51
2022-09-03T19:14:39.942Z,78.83
2022-09-03T19:17:51.495Z,78.44
2022-09-03T19:20:55.880Z,78.97
2022-09-03T19:23:57.918Z,79.05
2022-09-03T19:27:23.537Z,79.57
2022-09-03T19:30:33.646Z,78.74
2022-09-03T19:33:47.930Z,79.11
2022-09-03T19:37:01.381Z,78.05
2022-09-03T19:40:21.956Z,79.53
2022-09-03T19:43:37.662Z,78.48
2022-09-03T19:46:48.891Z,78.25
2022-09-03T19:50:00.470Z,77.87
2022-09-03T19:53:09.524Z,78.29
2022-09-03T19:56:13.645Z,78.28
2022-09-03T19:59:19.151Z,78.55
2022-09-03T20:02:22.083Z,77.98
2022-09-03T20:05:29.360Z,77.60
2022-09-03T20:08:34.743Z,77.86
2022-09-03T20:11:20.973Z,78.27
2022-09-03T20:14:17.149Z,77.98
2022-09-03T20:17:15.868Z,77.72
2022-09-03T20:20:13.257Z,77.54
2022-09-03T20:23:02.659Z,77.18
2022-09-03T20:25:59.514Z,75.91
2022-09-03T20:29:02.320Z,74.86
2022-09-03T20:31:54.892Z,74.50
2022-09-03T20:34:52.703Z,74.43
2022-09-03T20:37:42.747Z,75.04
2022-09-03T20:40:34.930Z,74.37
2022-09-03T20:43:57.323Z,74.79
2022-09-03T20:46:56.159Z,73.77
2022-09-03T20:49:53.966Z,74.98
2022-09-03T20:52:45.998Z,74.79
2022-09-03T20:55:34.303Z,74.63
2022-09-03T20:58:25.447Z,74.48
2022-09-03T21:01:10.950Z,74.78
2022-09-03T21:04:07.383Z,74.40
2022-09-03T21:07:01.241Z,75.27
2022-09-03T21:09:53.248Z,76.06
2022-09-03T21:12:46.515Z,75.67
2022-09-03T21:15:39.393Z,77.29
2022-09-03T21:18:34.874Z,77.22
2022-09-03T21:21:25.192Z,77.89
2022-09-03T21:24:16.408Z,77.35
2022-09-03T21:27:05.820Z,77.53
2022-09-03T21:30:01.383Z,78.30
2022-09-03T21:32:53.587Z,77.63
2022-09-03T21:35:43.621Z,77.80
2022-09-03T21:38:29.567Z,77.50
2022-09-03T21:41:22.819Z,76.79
2022-09-03T21:44:13.257Z,77.35
2022-09-03T21:47:00.647Z,77.25
2022-09-03T21:50:05.177Z,76.54
2022-09-03T21:52:55.494Z,77.32
2022-09-03T21:55:50.122Z,77.22
2022-09-03T21:58:48.851Z,77.20
2022-09-03T22:01:41.662Z,76.81
2022-09-03T22:04:27.100Z,76.14
2022-09-03T22:07:18.396Z,76.18
2022-09-03T22:10:07.686Z,76.90
2022-09-03T22:13:00.900Z,77.19
2022-09-03T22:15:51.991Z,76.85
2022-09-03T22:18:38.028Z,77.41
2022-09-03T22:21:31.259Z,77.56
2022-09-03T22:24:23.223Z,77.50
2022-09-03T22:27:15.680Z,76.35
2022-09-03T22:30:06.886Z,76.72
2022-09-03T22:33:04.480Z,77.02
2022-09-03T22:36:04.386Z,76.93
2022-09-03T22:39:12.395Z,77.81
2022-09-03T22:42:11.524Z,77.23
2022-09-03T22:45:10.850Z,77.92
2022-09-03T22:48:08.414Z,78.57
2022-09-03T22:50:57.860Z,78.93
2022-09-03T22:54:02.228Z,79.22
2022-09-03T22:56:46.577Z,79.61
2022-09-03T22:59:36.467Z,79.35
2022-09-03T23:02:24.418Z,79.37
2022-09-03T23:05:16.143Z,79.09
2022-09-03T23:08:06.292Z,79.27
2022-09-03T23:11:00.541Z,79.66
2022-09-03T23:13:50.048Z,79.35
2022-09-03T23:16:39.725Z,80.04
2022-09-03T23:19:38.950Z,79.57
2022-09-03T23:22:31.783Z,79.20
2022-09-03T23:25:21.858Z,78.91
2022-09-03T23:28:12.192Z,79.80
2022-09-03T23:31:03.948Z,78.53
2022-09-03T23:33:50.201Z,79.08
2022-09-03T23:37:16.004Z,79.52
2022-09-03T23:40:21.159Z,80.24
2022-09-03T23:43:31.133Z,79.90
2022-09-03T23:46:20.096Z,79.65
2022-09-03T23:49:35.575Z,80.29
2022-09-03T23:52:41.700Z,79.92
2022-09-03T23:55:38.605Z,80.38
2022-09-03T23:58:36.745Z,79.97
